Alabordache — FAB8290 — position and weather

sailwx.info

Track history (hours):
 
Tides and Currents Weather Stations Pressure Air Temp Water Temp Dewpoint Dewpoint Depression Visibility Wind Speed Wind Dir Waves Ship Positions

Alabordache

Last reported at 2018-May-18 13:36 UTC. Time now 2018-May-20 13:53 UTC.
Position N 48°17' W 004°25'.

Length 12 m.

Type: Sailing vessel. MMSI: 227243120.

Date/timePositionNaut miles runAvg speedWind from/ knotsBaromVisibWave heightAir tempDewpointWater temp
2018-May-18 13:36N 48°17' W 004°25'0 0.8
2018-May-18 13:23N 48°17' W 004°25'1 1.7
2018-May-18 13:00N 48°18' W 004°24'1 2.0
2018-May-18 12:30N 48°18' W 004°23'2 2.5
2018-May-18 11:33N 48°19' W 004°20'0 0.0
2018-May-18 09:58N 48°19' W 004°20'1 0.1
2018-May-17 14:48N 48°18' W 004°18'2 2.9
2018-May-17 14:09N 48°18' W 004°21'1 5.8
2018-May-17 13:59N 48°18' W 004°22'2 4.0
2018-May-17 13:30N 48°18' W 004°25'0 0.1
2018-May-17 08:12N 48°17' W 004°25'1 5.7
2018-May-17 08:00N 48°18' W 004°26'3 6.1
2018-May-17 07:30N 48°21' W 004°28'3 0.1
2018-May-15 14:53N 48°23' W 004°26'2 5.8
2018-May-15 14:30N 48°21' W 004°27'2 4.1
2018-May-15 14:00N 48°19' W 004°28'2 4.0
2018-May-15 13:30N 48°18' W 004°25'  
Track history (hours):
 
Tides and Currents Weather Stations Pressure Air Temp Water Temp Dewpoint Dewpoint Depression Visibility Wind Speed Wind Dir Waves Ship Positions

Alabordache

Last reported at 2018-May-18 13:36 UTC. Time now 2018-May-20 13:53 UTC.
Position N 48°17' W 004°25'.

Length 12 m.

Type: Sailing vessel. MMSI: 227243120.

Date/timePositionNaut miles runAvg speedWind from/ knotsBaromVisibWave heightAir tempDewpointWater temp
2018-May-18 13:36N 48°17' W 004°25'0 0.8
2018-May-18 13:23N 48°17' W 004°25'1 1.7
2018-May-18 13:00N 48°18' W 004°24'1 2.0
2018-May-18 12:30N 48°18' W 004°23'2 2.5
2018-May-18 11:33N 48°19' W 004°20'0 0.0
2018-May-18 09:58N 48°19' W 004°20'1 0.1
2018-May-17 14:48N 48°18' W 004°18'2 2.9
2018-May-17 14:09N 48°18' W 004°21'1 5.8
2018-May-17 13:59N 48°18' W 004°22'2 4.0
2018-May-17 13:30N 48°18' W 004°25'0 0.1
2018-May-17 08:12N 48°17' W 004°25'1 5.7
2018-May-17 08:00N 48°18' W 004°26'3 6.1
2018-May-17 07:30N 48°21' W 004°28'3 0.1
2018-May-15 14:53N 48°23' W 004°26'2 5.8
2018-May-15 14:30N 48°21' W 004°27'2 4.1
2018-May-15 14:00N 48°19' W 004°28'2 4.0
2018-May-15 13:30N 48°18' W 004°25'  

Dump ship's entire track history